Terminal Aerodrome Forecast
Issued by NWS

Home | Current Version | Previous Version | Text Only | Print | Product List | Glossary On
Versions: 1 2 3 4 5 6 7 8 9 10 11 12 13 14 15 16 17 18 19 20 21 22 23 24 25 26 27 28 29 30 31 32 33 34 35 36 37 38 39 40 41 42 43
234
FTUS45 KBOU 121128
TAFBJC
TAF
KBJC 121128Z 1212/1312 31012KT P6SM SCT220
     FM121500 VRB05KT P6SM FEW080 SCT120 BKN220
     FM121900 08007KT P6SM FEW120 SCT220
     FM130100 26009KT P6SM SCT220
     FM130700 28007KT P6SM FEW220=

USA.gov is the U.S. government's official web portal to all federal, state and local government web resources and services.